sensor_id;sensor_type;location;lat;lon;timestamp;temperature;humidity
4962;DHT22;2496;52.468;13.342;2023-02-28T00:01:18;2.60;99.90
4962;DHT22;2496;52.468;13.342;2023-02-28T00:03:45;2.60;99.90
4962;DHT22;2496;52.468;13.342;2023-02-28T00:06:12;2.60;99.90
4962;DHT22;2496;52.468;13.342;2023-02-28T00:08:41;2.60;99.90
4962;DHT22;2496;52.468;13.342;2023-02-28T00:11:10;2.60;99.90
4962;DHT22;2496;52.468;13.342;2023-02-28T00:13:39;2.60;99.90
4962;DHT22;2496;52.468;13.342;2023-02-28T00:16:08;2.60;99.90
4962;DHT22;2496;52.468;13.342;2023-02-28T00:18:36;2.60;99.90
4962;DHT22;2496;52.468;13.342;2023-02-28T00:21:04;2.60;99.90
4962;DHT22;2496;52.468;13.342;2023-02-28T00:23:32;2.60;99.90
4962;DHT22;2496;52.468;13.342;2023-02-28T00:26:00;2.60;99.90
4962;DHT22;2496;52.468;13.342;2023-02-28T00:28:27;2.60;99.90
4962;DHT22;2496;52.468;13.342;2023-02-28T00:30:54;2.50;99.90
4962;DHT22;2496;52.468;13.342;2023-02-28T00:33:23;2.50;99.90
4962;DHT22;2496;52.468;13.342;2023-02-28T00:35:50;2.50;99.90
4962;DHT22;2496;52.468;13.342;2023-02-28T00:38:17;2.40;99.90
4962;DHT22;2496;52.468;13.342;2023-02-28T00:40:44;2.40;99.90
4962;DHT22;2496;52.468;13.342;2023-02-28T00:43:12;2.50;99.90
4962;DHT22;2496;52.468;13.342;2023-02-28T00:45:39;2.50;99.90
4962;DHT22;2496;52.468;13.342;2023-02-28T00:48:06;2.50;99.90
4962;DHT22;2496;52.468;13.342;2023-02-28T00:50:33;2.50;99.90
4962;DHT22;2496;52.468;13.342;2023-02-28T00:53:00;2.50;99.90
4962;DHT22;2496;52.468;13.342;2023-02-28T00:55:27;2.50;99.90
4962;DHT22;2496;52.468;13.342;2023-02-28T00:57:54;2.50;99.90
4962;DHT22;2496;52.468;13.342;2023-02-28T01:00:23;2.50;99.90
4962;DHT22;2496;52.468;13.342;2023-02-28T01:02:50;2.50;99.90
4962;DHT22;2496;52.468;13.342;2023-02-28T01:05:17;2.40;99.90
4962;DHT22;2496;52.468;13.342;2023-02-28T01:07:44;2.40;99.90
4962;DHT22;2496;52.468;13.342;2023-02-28T01:10:11;2.30;99.90
4962;DHT22;2496;52.468;13.342;2023-02-28T01:12:38;2.30;99.90
4962;DHT22;2496;52.468;13.342;2023-02-28T01:15:06;2.30;99.90
4962;DHT22;2496;52.468;13.342;2023-02-28T01:17:36;2.30;99.90
4962;DHT22;2496;52.468;13.342;2023-02-28T01:20:03;2.30;99.90
4962;DHT22;2496;52.468;13.342;2023-02-28T01:22:30;2.30;99.90
4962;DHT22;2496;52.468;13.342;2023-02-28T01:24:57;2.30;99.90
4962;DHT22;2496;52.468;13.342;2023-02-28T01:27:24;2.30;99.90
4962;DHT22;2496;52.468;13.342;2023-02-28T01:29:52;2.30;99.90
4962;DHT22;2496;52.468;13.342;2023-02-28T01:32:19;2.30;99.90
4962;DHT22;2496;52.468;13.342;2023-02-28T01:34:47;2.30;99.90
4962;DHT22;2496;52.468;13.342;2023-02-28T01:37:14;2.30;99.90
4962;DHT22;2496;52.468;13.342;2023-02-28T01:39:41;2.30;99.90
4962;DHT22;2496;52.468;13.342;2023-02-28T01:42:09;2.30;99.90
4962;DHT22;2496;52.468;13.342;2023-02-28T01:44:58;2.30;99.90
4962;DHT22;2496;52.468;13.342;2023-02-28T01:47:28;2.30;99.90
4962;DHT22;2496;52.468;13.342;2023-02-28T01:49:58;2.30;99.90
4962;DHT22;2496;52.468;13.342;2023-02-28T01:52:28;2.20;99.90
4962;DHT22;2496;52.468;13.342;2023-02-28T01:54:59;2.20;99.90
4962;DHT22;2496;52.468;13.342;2023-02-28T01:57:30;2.20;99.90
4962;DHT22;2496;52.468;13.342;2023-02-28T02:00:06;2.20;99.90
4962;DHT22;2496;52.468;13.342;2023-02-28T02:02:35;2.20;99.90
4962;DHT22;2496;52.468;13.342;2023-02-28T02:05:09;2.20;99.90
4962;DHT22;2496;52.468;13.342;2023-02-28T02:07:37;2.10;99.90
4962;DHT22;2496;52.468;13.342;2023-02-28T02:10:10;2.10;99.90
4962;DHT22;2496;52.468;13.342;2023-02-28T02:12:53;2.10;99.90
4962;DHT22;2496;52.468;13.342;2023-02-28T02:15:28;2.00;99.90
4962;DHT22;2496;52.468;13.342;2023-02-28T02:18:01;2.00;99.90
4962;DHT22;2496;52.468;13.342;2023-02-28T02:20:56;2.00;99.90
4962;DHT22;2496;52.468;13.342;2023-02-28T02:24:03;2.00;99.90
4962;DHT22;2496;52.468;13.342;2023-02-28T02:26:47;2.00;99.90
4962;DHT22;2496;52.468;13.342;2023-02-28T02:35:08;1.90;99.90
4962;DHT22;2496;52.468;13.342;2023-02-28T02:37:42;1.90;99.90
4962;DHT22;2496;52.468;13.342;2023-02-28T02:40:16;1.90;99.90
4962;DHT22;2496;52.468;13.342;2023-02-28T02:42:50;1.90;99.90
4962;DHT22;2496;52.468;13.342;2023-02-28T02:45:25;1.80;99.90
4962;DHT22;2496;52.468;13.342;2023-02-28T02:47:53;1.80;99.90
4962;DHT22;2496;52.468;13.342;2023-02-28T02:50:26;1.80;99.90
4962;DHT22;2496;52.468;13.342;2023-02-28T02:52:57;1.80;99.90
4962;DHT22;2496;52.468;13.342;2023-02-28T02:55:25;1.80;99.90
4962;DHT22;2496;52.468;13.342;2023-02-28T02:57:56;1.80;99.90
4962;DHT22;2496;52.468;13.342;2023-02-28T03:00:29;1.80;99.90
4962;DHT22;2496;52.468;13.342;2023-02-28T03:02:57;1.80;99.90
4962;DHT22;2496;52.468;13.342;2023-02-28T03:05:28;1.80;99.90
4962;DHT22;2496;52.468;13.342;2023-02-28T03:07:57;1.80;99.90
4962;DHT22;2496;52.468;13.342;2023-02-28T03:10:30;1.70;99.90
4962;DHT22;2496;52.468;13.342;2023-02-28T03:13:10;1.70;99.90
4962;DHT22;2496;52.468;13.342;2023-02-28T03:15:50;1.60;99.90
4962;DHT22;2496;52.468;13.342;2023-02-28T03:18:24;1.60;99.90
4962;DHT22;2496;52.468;13.342;2023-02-28T03:21:02;1.50;99.90
4962;DHT22;2496;52.468;13.342;2023-02-28T03:23:38;1.50;99.90
4962;DHT22;2496;52.468;13.342;2023-02-28T03:26:13;1.50;99.90
4962;DHT22;2496;52.468;13.342;2023-02-28T03:28:50;1.50;99.90
4962;DHT22;2496;52.468;13.342;2023-02-28T03:31:24;1.40;99.90
4962;DHT22;2496;52.468;13.342;2023-02-28T03:33:57;1.40;99.90
4962;DHT22;2496;52.468;13.342;2023-02-28T03:36:28;1.40;99.90
4962;DHT22;2496;52.468;13.342;2023-02-28T03:38:59;1.40;99.90
4962;DHT22;2496;52.468;13.342;2023-02-28T03:41:32;1.40;99.90
4962;DHT22;2496;52.468;13.342;2023-02-28T03:44:05;1.40;99.90
4962;DHT22;2496;52.468;13.342;2023-02-28T03:46:41;1.30;99.90
4962;DHT22;2496;52.468;13.342;2023-02-28T03:49:16;1.30;99.90
4962;DHT22;2496;52.468;13.342;2023-02-28T03:51:46;1.30;99.90
4962;DHT22;2496;52.468;13.342;2023-02-28T03:54:18;1.30;99.90
4962;DHT22;2496;52.468;13.342;2023-02-28T03:56:51;1.30;99.90
4962;DHT22;2496;52.468;13.342;2023-02-28T03:59:22;1.30;99.90
4962;DHT22;2496;52.468;13.342;2023-02-28T04:01:51;1.30;99.90
4962;DHT22;2496;52.468;13.342;2023-02-28T04:04:21;1.40;99.90
4962;DHT22;2496;52.468;13.342;2023-02-28T04:06:51;1.40;99.90
4962;DHT22;2496;52.468;13.342;2023-02-28T04:09:20;1.40;99.90
4962;DHT22;2496;52.468;13.342;2023-02-28T04:11:50;1.40;99.90
4962;DHT22;2496;52.468;13.342;2023-02-28T04:14:18;1.40;99.90
4962;DHT22;2496;52.468;13.342;2023-02-28T04:16:46;1.40;99.90
4962;DHT22;2496;52.468;13.342;2023-02-28T04:19:14;1.40;99.90
4962;DHT22;2496;52.468;13.342;2023-02-28T04:21:42;1.40;99.90
4962;DHT22;2496;52.468;13.342;2023-02-28T04:24:13;1.40;99.90
4962;DHT22;2496;52.468;13.342;2023-02-28T04:26:42;1.40;99.90
4962;DHT22;2496;52.468;13.342;2023-02-28T04:29:11;1.40;99.90
4962;DHT22;2496;52.468;13.342;2023-02-28T04:31:39;1.40;99.90
4962;DHT22;2496;52.468;13.342;2023-02-28T04:34:06;1.40;99.90
4962;DHT22;2496;52.468;13.342;2023-02-28T04:36:33;1.40;99.90
4962;DHT22;2496;52.468;13.342;2023-02-28T04:39:01;1.40;99.90
4962;DHT22;2496;52.468;13.342;2023-02-28T04:41:31;1.40;99.90
4962;DHT22;2496;52.468;13.342;2023-02-28T04:43:58;1.40;99.90
4962;DHT22;2496;52.468;13.342;2023-02-28T04:46:25;1.30;99.90
4962;DHT22;2496;52.468;13.342;2023-02-28T04:48:52;1.30;99.90
4962;DHT22;2496;52.468;13.342;2023-02-28T04:51:20;1.40;99.90
4962;DHT22;2496;52.468;13.342;2023-02-28T04:53:48;1.40;99.90
4962;DHT22;2496;52.468;13.342;2023-02-28T04:56:16;1.40;99.90
4962;DHT22;2496;52.468;13.342;2023-02-28T04:58:45;1.40;99.90
4962;DHT22;2496;52.468;13.342;2023-02-28T05:01:22;1.40;99.90
4962;DHT22;2496;52.468;13.342;2023-02-28T05:03:50;1.30;99.90
4962;DHT22;2496;52.468;13.342;2023-02-28T05:06:18;1.30;99.90
4962;DHT22;2496;52.468;13.342;2023-02-28T05:08:46;1.20;99.90
4962;DHT22;2496;52.468;13.342;2023-02-28T05:11:16;1.20;99.90
4962;DHT22;2496;52.468;13.342;2023-02-28T05:13:45;1.10;99.90
4962;DHT22;2496;52.468;13.342;2023-02-28T05:16:12;1.10;99.90
4962;DHT22;2496;52.468;13.342;2023-02-28T05:18:39;1.10;99.90
4962;DHT22;2496;52.468;13.342;2023-02-28T05:21:25;1.10;99.90
4962;DHT22;2496;52.468;13.342;2023-02-28T05:23:54;1.00;99.90
4962;DHT22;2496;52.468;13.342;2023-02-28T05:26:22;1.00;99.90
4962;DHT22;2496;52.468;13.342;2023-02-28T05:28:51;1.00;99.90
4962;DHT22;2496;52.468;13.342;2023-02-28T05:31:18;1.00;99.90
4962;DHT22;2496;52.468;13.342;2023-02-28T05:33:45;1.00;99.90
4962;DHT22;2496;52.468;13.342;2023-02-28T05:36:12;1.00;99.90
4962;DHT22;2496;52.468;13.342;2023-02-28T05:38:40;1.00;99.90
4962;DHT22;2496;52.468;13.342;2023-02-28T05:41:08;1.00;99.90
4962;DHT22;2496;52.468;13.342;2023-02-28T05:43:36;1.10;99.90
4962;DHT22;2496;52.468;13.342;2023-02-28T05:46:07;1.10;99.90
4962;DHT22;2496;52.468;13.342;2023-02-28T05:48:36;1.10;99.90
4962;DHT22;2496;52.468;13.342;2023-02-28T05:51:04;1.10;99.90
4962;DHT22;2496;52.468;13.342;2023-02-28T05:53:33;1.10;99.90
4962;DHT22;2496;52.468;13.342;2023-02-28T05:56:00;1.10;99.90
4962;DHT22;2496;52.468;13.342;2023-02-28T05:58:30;1.10;99.90
4962;DHT22;2496;52.468;13.342;2023-02-28T06:00:57;1.10;99.90
4962;DHT22;2496;52.468;13.342;2023-02-28T06:03:26;1.10;99.90
4962;DHT22;2496;52.468;13.342;2023-02-28T06:05:54;1.10;99.90
4962;DHT22;2496;52.468;13.342;2023-02-28T06:08:21;1.10;99.90
4962;DHT22;2496;52.468;13.342;2023-02-28T06:10:48;1.10;99.90
4962;DHT22;2496;52.468;13.342;2023-02-28T06:13:17;1.10;99.90
4962;DHT22;2496;52.468;13.342;2023-02-28T06:15:45;1.00;99.90
4962;DHT22;2496;52.468;13.342;2023-02-28T06:18:12;1.00;99.90
4962;DHT22;2496;52.468;13.342;2023-02-28T06:20:40;1.00;99.90
4962;DHT22;2496;52.468;13.342;2023-02-28T06:23:08;1.10;99.90
4962;DHT22;2496;52.468;13.342;2023-02-28T06:25:35;1.10;99.90
4962;DHT22;2496;52.468;13.342;2023-02-28T06:28:02;1.10;99.90
4962;DHT22;2496;52.468;13.342;2023-02-28T06:30:29;1.10;99.90
4962;DHT22;2496;52.468;13.342;2023-02-28T06:32:56;1.10;99.90
4962;DHT22;2496;52.468;13.342;2023-02-28T06:35:23;1.10;99.90
4962;DHT22;2496;52.468;13.342;2023-02-28T06:37:52;1.10;99.90
4962;DHT22;2496;52.468;13.342;2023-02-28T06:40:19;1.10;99.90
4962;DHT22;2496;52.468;13.342;2023-02-28T06:42:46;1.10;99.90
4962;DHT22;2496;52.468;13.342;2023-02-28T06:45:13;1.20;99.90
4962;DHT22;2496;52.468;13.342;2023-02-28T06:47:41;1.10;99.90
4962;DHT22;2496;52.468;13.342;2023-02-28T06:50:11;1.20;99.90
4962;DHT22;2496;52.468;13.342;2023-02-28T06:52:39;1.20;99.90
4962;DHT22;2496;52.468;13.342;2023-02-28T06:55:08;1.20;99.90
4962;DHT22;2496;52.468;13.342;2023-02-28T06:57:36;1.20;99.90
4962;DHT22;2496;52.468;13.342;2023-02-28T07:00:05;1.20;99.90
4962;DHT22;2496;52.468;13.342;2023-02-28T07:02:33;1.20;99.90
4962;DHT22;2496;52.468;13.342;2023-02-28T07:05:00;1.20;99.90
4962;DHT22;2496;52.468;13.342;2023-02-28T07:07:27;1.30;99.90
4962;DHT22;2496;52.468;13.342;2023-02-28T07:09:56;1.30;99.90
4962;DHT22;2496;52.468;13.342;2023-02-28T07:12:24;1.30;99.90
4962;DHT22;2496;52.468;13.342;2023-02-28T07:14:51;1.30;99.90
4962;DHT22;2496;52.468;13.342;2023-02-28T07:17:20;1.30;99.90
4962;DHT22;2496;52.468;13.342;2023-02-28T07:19:47;1.30;99.90
4962;DHT22;2496;52.468;13.342;2023-02-28T07:22:14;1.40;99.90
4962;DHT22;2496;52.468;13.342;2023-02-28T07:24:41;1.40;99.90
4962;DHT22;2496;52.468;13.342;2023-02-28T07:27:08;1.50;99.90
4962;DHT22;2496;52.468;13.342;2023-02-28T07:29:36;1.50;99.90
4962;DHT22;2496;52.468;13.342;2023-02-28T07:32:04;1.50;99.90
4962;DHT22;2496;52.468;13.342;2023-02-28T07:34:31;1.60;99.90
4962;DHT22;2496;52.468;13.342;2023-02-28T07:36:58;1.60;99.90
4962;DHT22;2496;52.468;13.342;2023-02-28T07:39:29;1.70;99.90
4962;DHT22;2496;52.468;13.342;2023-02-28T07:41:56;1.70;99.90
4962;DHT22;2496;52.468;13.342;2023-02-28T07:44:23;1.80;99.90
4962;DHT22;2496;52.468;13.342;2023-02-28T07:46:51;1.90;99.90
4962;DHT22;2496;52.468;13.342;2023-02-28T07:49:18;2.30;99.90
4962;DHT22;2496;52.468;13.342;2023-02-28T07:51:45;3.30;99.90
4962;DHT22;2496;52.468;13.342;2023-02-28T07:54:12;4.50;99.90
4962;DHT22;2496;52.468;13.342;2023-02-28T07:56:39;5.60;99.90
4962;DHT22;2496;52.468;13.342;2023-02-28T07:59:06;6.30;99.30
4962;DHT22;2496;52.468;13.342;2023-02-28T08:01:33;6.50;98.30
4962;DHT22;2496;52.468;13.342;2023-02-28T08:04:02;6.50;96.40
4962;DHT22;2496;52.468;13.342;2023-02-28T08:06:29;6.40;95.60
4962;DHT22;2496;52.468;13.342;2023-02-28T08:08:56;6.20;95.60
4962;DHT22;2496;52.468;13.342;2023-02-28T08:11:23;6.10;95.60
4962;DHT22;2496;52.468;13.342;2023-02-28T08:13:50;6.10;95.30
4962;DHT22;2496;52.468;13.342;2023-02-28T08:16:18;5.90;94.40
4962;DHT22;2496;52.468;13.342;2023-02-28T08:18:48;5.70;93.40
4962;DHT22;2496;52.468;13.342;2023-02-28T08:21:17;5.50;93.70
4962;DHT22;2496;52.468;13.342;2023-02-28T08:23:46;5.30;94.20
4962;DHT22;2496;52.468;13.342;2023-02-28T08:26:13;5.20;93.90
4962;DHT22;2496;52.468;13.342;2023-02-28T08:28:40;5.10;93.20
4962;DHT22;2496;52.468;13.342;2023-02-28T08:31:08;5.00;92.70
4962;DHT22;2496;52.468;13.342;2023-02-28T08:33:36;4.80;92.90
4962;DHT22;2496;52.468;13.342;2023-02-28T08:36:05;4.70;92.20
4962;DHT22;2496;52.468;13.342;2023-02-28T08:38:34;4.60;91.90
4962;DHT22;2496;52.468;13.342;2023-02-28T08:41:03;4.60;92.30
4962;DHT22;2496;52.468;13.342;2023-02-28T08:43:31;4.50;92.10
4962;DHT22;2496;52.468;13.342;2023-02-28T08:46:00;4.60;92.10
4962;DHT22;2496;52.468;13.342;2023-02-28T08:48:29;4.60;91.20
4962;DHT22;2496;52.468;13.342;2023-02-28T08:50:57;4.60;90.80
4962;DHT22;2496;52.468;13.342;2023-02-28T08:53:24;4.60;90.40
4962;DHT22;2496;52.468;13.342;2023-02-28T08:56:01;4.60;90.80
4962;DHT22;2496;52.468;13.342;2023-02-28T08:58:28;4.70;90.50
4962;DHT22;2496;52.468;13.342;2023-02-28T09:00:55;4.70;90.50
4962;DHT22;2496;52.468;13.342;2023-02-28T09:03:23;4.80;90.20
4962;DHT22;2496;52.468;13.342;2023-02-28T09:05:54;4.90;89.00
4962;DHT22;2496;52.468;13.342;2023-02-28T09:08:22;5.00;89.20
4962;DHT22;2496;52.468;13.342;2023-02-28T09:10:49;5.10;89.50
4962;DHT22;2496;52.468;13.342;2023-02-28T09:13:18;5.20;89.10
4962;DHT22;2496;52.468;13.342;2023-02-28T09:15:45;5.30;88.80
4962;DHT22;2496;52.468;13.342;2023-02-28T09:18:13;5.40;89.10
4962;DHT22;2496;52.468;13.342;2023-02-28T09:20:41;5.60;88.30
4962;DHT22;2496;52.468;13.342;2023-02-28T09:23:09;5.80;88.40
4962;DHT22;2496;52.468;13.342;2023-02-28T09:25:37;6.00;86.50
4962;DHT22;2496;52.468;13.342;2023-02-28T09:28:04;6.00;85.60
4962;DHT22;2496;52.468;13.342;2023-02-28T09:30:32;6.10;86.10
4962;DHT22;2496;52.468;13.342;2023-02-28T09:33:00;6.10;86.30
4962;DHT22;2496;52.468;13.342;2023-02-28T09:35:27;5.90;86.40
4962;DHT22;2496;52.468;13.342;2023-02-28T09:37:56;5.70;86.60
4962;DHT22;2496;52.468;13.342;2023-02-28T09:40:25;5.50;87.20
4962;DHT22;2496;52.468;13.342;2023-02-28T09:42:55;5.40;87.10
4962;DHT22;2496;52.468;13.342;2023-02-28T09:45:24;5.30;86.40
4962;DHT22;2496;52.468;13.342;2023-02-28T09:47:58;5.20;86.20
4962;DHT22;2496;52.468;13.342;2023-02-28T09:50:30;5.20;86.60
4962;DHT22;2496;52.468;13.342;2023-02-28T09:52:59;5.10;86.60
4962;DHT22;2496;52.468;13.342;2023-02-28T09:55:30;5.00;87.40
4962;DHT22;2496;52.468;13.342;2023-02-28T09:57:59;5.00;87.00
4962;DHT22;2496;52.468;13.342;2023-02-28T10:00:32;5.00;86.90
4962;DHT22;2496;52.468;13.342;2023-02-28T10:06:03;4.70;88.00
4962;DHT22;2496;52.468;13.342;2023-02-28T10:08:35;4.70;87.90
4962;DHT22;2496;52.468;13.342;2023-02-28T10:11:07;4.70;87.40
4962;DHT22;2496;52.468;13.342;2023-02-28T10:13:39;4.70;87.60
4962;DHT22;2496;52.468;13.342;2023-02-28T10:16:13;4.70;87.00
4962;DHT22;2496;52.468;13.342;2023-02-28T10:18:46;4.80;86.90
4962;DHT22;2496;52.468;13.342;2023-02-28T10:21:21;4.70;87.30
4962;DHT22;2496;52.468;13.342;2023-02-28T10:23:53;4.70;88.70
4962;DHT22;2496;52.468;13.342;2023-02-28T10:26:24;4.60;87.50
4962;DHT22;2496;52.468;13.342;2023-02-28T10:28:53;4.60;87.70
4962;DHT22;2496;52.468;13.342;2023-02-28T10:31:20;4.50;87.70
4962;DHT22;2496;52.468;13.342;2023-02-28T10:33:49;4.50;88.00
4962;DHT22;2496;52.468;13.342;2023-02-28T10:36:20;4.50;87.50
4962;DHT22;2496;52.468;13.342;2023-02-28T10:38:48;4.50;89.90
4962;DHT22;2496;52.468;13.342;2023-02-28T10:41:18;4.60;88.50
4962;DHT22;2496;52.468;13.342;2023-02-28T10:44:13;4.70;88.20
4962;DHT22;2496;52.468;13.342;2023-02-28T10:46:41;4.70;87.70
4962;DHT22;2496;52.468;13.342;2023-02-28T10:49:14;4.60;87.20
4962;DHT22;2496;52.468;13.342;2023-02-28T10:51:43;4.60;88.00
4962;DHT22;2496;52.468;13.342;2023-02-28T10:54:19;4.60;88.20
4962;DHT22;2496;52.468;13.342;2023-02-28T10:57:06;4.60;88.00
4962;DHT22;2496;52.468;13.342;2023-02-28T10:59:34;4.70;88.30
4962;DHT22;2496;52.468;13.342;2023-02-28T11:02:01;4.70;88.50
4962;DHT22;2496;52.468;13.342;2023-02-28T11:04:36;4.80;88.20
4962;DHT22;2496;52.468;13.342;2023-02-28T11:07:17;4.70;87.30
4962;DHT22;2496;52.468;13.342;2023-02-28T11:09:46;4.60;87.10
4962;DHT22;2496;52.468;13.342;2023-02-28T11:12:21;4.70;87.90
4962;DHT22;2496;52.468;13.342;2023-02-28T11:14:51;4.60;88.40
4962;DHT22;2496;52.468;13.342;2023-02-28T11:17:21;4.60;87.80
4962;DHT22;2496;52.468;13.342;2023-02-28T11:19:51;4.60;88.60
4962;DHT22;2496;52.468;13.342;2023-02-28T11:22:22;4.70;89.40
4962;DHT22;2496;52.468;13.342;2023-02-28T11:24:52;4.80;87.60
4962;DHT22;2496;52.468;13.342;2023-02-28T11:27:44;4.80;86.20
4962;DHT22;2496;52.468;13.342;2023-02-28T11:30:25;4.70;85.40
4962;DHT22;2496;52.468;13.342;2023-02-28T11:32:52;4.80;87.30
4962;DHT22;2496;52.468;13.342;2023-02-28T11:35:24;4.80;86.30
4962;DHT22;2496;52.468;13.342;2023-02-28T11:37:53;4.80;86.40
4962;DHT22;2496;52.468;13.342;2023-02-28T11:40:27;4.90;86.60
4962;DHT22;2496;52.468;13.342;2023-02-28T11:43:04;4.90;86.10
4962;DHT22;2496;52.468;13.342;2023-02-28T11:45:45;4.90;85.50
4962;DHT22;2496;52.468;13.342;2023-02-28T11:48:21;4.90;86.00
4962;DHT22;2496;52.468;13.342;2023-02-28T11:51:00;4.70;87.00
4962;DHT22;2496;52.468;13.342;2023-02-28T11:56:27;4.80;85.60
4962;DHT22;2496;52.468;13.342;2023-02-28T11:59:09;4.80;85.80
4962;DHT22;2496;52.468;13.342;2023-02-28T12:01:53;4.70;85.70
4962;DHT22;2496;52.468;13.342;2023-02-28T12:04:34;4.70;86.30
4962;DHT22;2496;52.468;13.342;2023-02-28T12:07:11;4.80;86.80
4962;DHT22;2496;52.468;13.342;2023-02-28T12:09:50;4.80;86.40
4962;DHT22;2496;52.468;13.342;2023-02-28T12:12:28;4.90;86.60
4962;DHT22;2496;52.468;13.342;2023-02-28T12:15:17;5.00;87.80
4962;DHT22;2496;52.468;13.342;2023-02-28T12:17:55;5.00;87.80
4962;DHT22;2496;52.468;13.342;2023-02-28T12:20:34;5.10;87.30
4962;DHT22;2496;52.468;13.342;2023-02-28T12:23:30;5.20;88.10
4962;DHT22;2496;52.468;13.342;2023-02-28T12:26:08;5.30;87.90
4962;DHT22;2496;52.468;13.342;2023-02-28T12:28:41;5.30;88.10
4962;DHT22;2496;52.468;13.342;2023-02-28T12:31:13;5.40;87.20
4962;DHT22;2496;52.468;13.342;2023-02-28T12:33:46;5.50;86.40
4962;DHT22;2496;52.468;13.342;2023-02-28T12:36:17;5.50;87.40
4962;DHT22;2496;52.468;13.342;2023-02-28T12:38:48;5.60;88.50
4962;DHT22;2496;52.468;13.342;2023-02-28T12:41:24;5.70;87.90
4962;DHT22;2496;52.468;13.342;2023-02-28T12:43:58;5.70;86.10
4962;DHT22;2496;52.468;13.342;2023-02-28T12:46:30;5.60;86.50
4962;DHT22;2496;52.468;13.342;2023-02-28T12:49:02;5.50;87.30
4962;DHT22;2496;52.468;13.342;2023-02-28T12:51:32;5.40;87.20
4962;DHT22;2496;52.468;13.342;2023-02-28T12:54:07;5.50;87.80
4962;DHT22;2496;52.468;13.342;2023-02-28T12:56:43;5.50;87.60
4962;DHT22;2496;52.468;13.342;2023-02-28T12:59:17;5.50;88.40
4962;DHT22;2496;52.468;13.342;2023-02-28T13:02:02;5.40;89.40
4962;DHT22;2496;52.468;13.342;2023-02-28T13:10:53;5.50;87.10
4962;DHT22;2496;52.468;13.342;2023-02-28T13:13:24;5.60;87.20
4962;DHT22;2496;52.468;13.342;2023-02-28T13:16:04;5.60;87.60
4962;DHT22;2496;52.468;13.342;2023-02-28T13:18:36;5.70;90.10
4962;DHT22;2496;52.468;13.342;2023-02-28T13:21:06;5.70;88.90
4962;DHT22;2496;52.468;13.342;2023-02-28T13:23:57;5.80;88.30
4962;DHT22;2496;52.468;13.342;2023-02-28T13:29:31;5.80;86.50
4962;DHT22;2496;52.468;13.342;2023-02-28T13:35:36;5.70;85.90
4962;DHT22;2496;52.468;13.342;2023-02-28T13:38:21;5.60;85.90
4962;DHT22;2496;52.468;13.342;2023-02-28T13:40:49;5.60;86.00
4962;DHT22;2496;52.468;13.342;2023-02-28T13:43:17;5.60;85.80
4962;DHT22;2496;52.468;13.342;2023-02-28T13:46:09;5.60;86.00
4962;DHT22;2496;52.468;13.342;2023-02-28T13:48:39;5.60;86.00
4962;DHT22;2496;52.468;13.342;2023-02-28T13:51:35;5.60;85.70
4962;DHT22;2496;52.468;13.342;2023-02-28T13:54:17;5.60;85.30
4962;DHT22;2496;52.468;13.342;2023-02-28T13:56:56;5.60;85.30
4962;DHT22;2496;52.468;13.342;2023-02-28T13:59:34;5.60;84.30
4962;DHT22;2496;52.468;13.342;2023-02-28T14:02:32;5.60;85.00
4962;DHT22;2496;52.468;13.342;2023-02-28T14:05:04;5.60;84.90
4962;DHT22;2496;52.468;13.342;2023-02-28T14:07:36;5.60;84.60
4962;DHT22;2496;52.468;13.342;2023-02-28T14:10:07;5.60;84.80
4962;DHT22;2496;52.468;13.342;2023-02-28T14:12:56;5.50;84.50
4962;DHT22;2496;52.468;13.342;2023-02-28T14:15:47;5.50;84.60
4962;DHT22;2496;52.468;13.342;2023-02-28T14:18:32;5.60;84.80
4962;DHT22;2496;52.468;13.342;2023-02-28T14:21:21;5.60;84.70
4962;DHT22;2496;52.468;13.342;2023-02-28T14:24:19;5.60;83.30
4962;DHT22;2496;52.468;13.342;2023-02-28T14:27:03;5.60;83.50
4962;DHT22;2496;52.468;13.342;2023-02-28T14:32:44;5.70;84.30
4962;DHT22;2496;52.468;13.342;2023-02-28T14:35:35;5.60;84.40
4962;DHT22;2496;52.468;13.342;2023-02-28T14:38:14;5.60;85.50
4962;DHT22;2496;52.468;13.342;2023-02-28T14:40:43;5.50;85.10
4962;DHT22;2496;52.468;13.342;2023-02-28T14:43:20;5.50;85.70
4962;DHT22;2496;52.468;13.342;2023-02-28T14:45:50;5.50;85.70
4962;DHT22;2496;52.468;13.342;2023-02-28T14:48:19;5.50;85.50
4962;DHT22;2496;52.468;13.342;2023-02-28T14:50:52;5.50;85.90
4962;DHT22;2496;52.468;13.342;2023-02-28T14:53:22;5.50;85.90
4962;DHT22;2496;52.468;13.342;2023-02-28T14:55:49;5.50;86.10
4962;DHT22;2496;52.468;13.342;2023-02-28T14:58:23;5.50;86.20
4962;DHT22;2496;52.468;13.342;2023-02-28T15:00:56;5.50;84.90
4962;DHT22;2496;52.468;13.342;2023-02-28T15:03:25;5.50;85.30
4962;DHT22;2496;52.468;13.342;2023-02-28T15:05:59;5.50;84.90
4962;DHT22;2496;52.468;13.342;2023-02-28T15:08:27;5.60;85.20
4962;DHT22;2496;52.468;13.342;2023-02-28T15:10:57;5.50;85.40
4962;DHT22;2496;52.468;13.342;2023-02-28T15:13:29;5.50;85.80
4962;DHT22;2496;52.468;13.342;2023-02-28T15:16:02;5.50;86.00
4962;DHT22;2496;52.468;13.342;2023-02-28T15:18:36;5.60;84.90
4962;DHT22;2496;52.468;13.342;2023-02-28T15:21:07;5.60;84.90
4962;DHT22;2496;52.468;13.342;2023-02-28T15:23:39;5.50;85.40
4962;DHT22;2496;52.468;13.342;2023-02-28T15:26:09;5.50;85.60
4962;DHT22;2496;52.468;13.342;2023-02-28T15:28:38;5.50;85.10
4962;DHT22;2496;52.468;13.342;2023-02-28T15:31:20;5.50;85.60
4962;DHT22;2496;52.468;13.342;2023-02-28T15:34:03;5.50;85.30
4962;DHT22;2496;52.468;13.342;2023-02-28T15:36:33;5.40;85.20
4962;DHT22;2496;52.468;13.342;2023-02-28T15:39:16;5.40;86.00
4962;DHT22;2496;52.468;13.342;2023-02-28T15:41:44;5.30;85.90
4962;DHT22;2496;52.468;13.342;2023-02-28T15:44:25;5.30;86.20
4962;DHT22;2496;52.468;13.342;2023-02-28T15:46:59;5.30;86.30
4962;DHT22;2496;52.468;13.342;2023-02-28T15:49:29;5.30;85.20
4962;DHT22;2496;52.468;13.342;2023-02-28T15:51:59;5.20;85.40
4962;DHT22;2496;52.468;13.342;2023-02-28T15:54:29;5.20;85.90
4962;DHT22;2496;52.468;13.342;2023-02-28T15:57:00;5.20;86.00
4962;DHT22;2496;52.468;13.342;2023-02-28T15:59:29;5.20;85.80
4962;DHT22;2496;52.468;13.342;2023-02-28T16:02:12;5.10;85.90
4962;DHT22;2496;52.468;13.342;2023-02-28T16:04:55;5.10;86.20
4962;DHT22;2496;52.468;13.342;2023-02-28T16:07:24;5.10;86.50
4962;DHT22;2496;52.468;13.342;2023-02-28T16:09:51;5.00;86.40
4962;DHT22;2496;52.468;13.342;2023-02-28T16:12:20;5.00;86.30
4962;DHT22;2496;52.468;13.342;2023-02-28T16:14:52;4.90;86.30
4962;DHT22;2496;52.468;13.342;2023-02-28T16:17:21;4.90;86.40
4962;DHT22;2496;52.468;13.342;2023-02-28T16:19:49;4.90;86.70
4962;DHT22;2496;52.468;13.342;2023-02-28T16:22:16;4.90;87.00
4962;DHT22;2496;52.468;13.342;2023-02-28T16:24:45;4.80;87.50
4962;DHT22;2496;52.468;13.342;2023-02-28T16:27:18;4.80;87.40
4962;DHT22;2496;52.468;13.342;2023-02-28T16:29:49;4.80;87.60
4962;DHT22;2496;52.468;13.342;2023-02-28T16:32:17;4.70;87.60
4962;DHT22;2496;52.468;13.342;2023-02-28T16:34:44;4.70;88.00
4962;DHT22;2496;52.468;13.342;2023-02-28T16:37:15;4.70;88.10
4962;DHT22;2496;52.468;13.342;2023-02-28T16:39:45;4.60;88.30
4962;DHT22;2496;52.468;13.342;2023-02-28T16:42:16;4.60;88.60
4962;DHT22;2496;52.468;13.342;2023-02-28T16:44:48;4.60;88.90
4962;DHT22;2496;52.468;13.342;2023-02-28T16:47:16;4.50;88.90
4962;DHT22;2496;52.468;13.342;2023-02-28T16:49:43;4.50;89.10
4962;DHT22;2496;52.468;13.342;2023-02-28T16:52:10;4.50;89.50
4962;DHT22;2496;52.468;13.342;2023-02-28T16:54:40;4.50;89.50
4962;DHT22;2496;52.468;13.342;2023-02-28T16:57:15;4.40;89.60